Terminal Aerodrome Forecast
Issued by NWS Blacksburg, VA

Home | Current Version | Previous Version | Text Only | Print | Product List | Glossary On
Versions: 1 2 3 4 5 6 7 8 9 10 11 12 13 14 15 16 17 18 19 20 21 22 23 24 25 26
000
FTUS41 KRNK 211729
TAFLYH
TAF
KLYH 211729Z 2118/2218 26008G16KT P6SM BKN050 BKN110
     FM220200 30007KT P6SM BKN045 OVC090
      TEMPO 2208/2212 6SM -RA OVC040=

USA.gov is the U.S. government's official web portal to all federal, state and local government web resources and services.